KOAJ/OAJ METAR and TAF weather

Enter ICAO airport designator
Station Type Date Time Source
KOAJ METAR 2024/04/17 17:56 UTC NOAA

KOAJ 171756Z 25008KT 10SM CLR 27/14 A3010 RMK AO2 SLP194 T02720139 10289 20156 56018 $


Station Type Date Time Source
KOAJ Decoded METAR 2024/04/17 17:56 UTC NOAA

Jacksonville, Albert J Ellis Airport, NC, United States (KOAJ) 34-50N 077-37W
Apr 17, 2024 - 01:56 PM EDT / 2024.04.17 1756 UTC
Wind: from the WSW (250 degrees) at 9 MPH (8 KT):0
Visibility: 10 mile(s):0
Sky conditions: clear
Temperature: 81.0 F (27.2 C)
Dew Point: 57.0 F (13.9 C)
Relative Humidity: 44%
Pressure (altimeter): 30.1 in. Hg (1019 hPa)
Pressure tendency: 0.05 inches (1.8 hPa) lower than three hours ago
ob: KOAJ 171756Z 25008KT 10SM CLR 27/14 A3010 RMK AO2 SLP194 T02720139 10289 20156 56018
cycle: 18

Station Type Date Time Source
KOAJ TAF 2024/04/17 18:22 UTC NOAA